sensor_id;sensor_type;location;lat;lon;timestamp;pressure;altitude;pressure_sealevel;temperature;humidity
46710;BME280;32442;51.514;-0.178;2023-02-12T00:00:59;103536.13;;;21.88;39.19
46710;BME280;32442;51.514;-0.178;2023-02-12T00:03:26;103529.03;;;21.86;38.83
46710;BME280;32442;51.514;-0.178;2023-02-12T00:05:53;103534.66;;;21.86;39.32
46710;BME280;32442;51.514;-0.178;2023-02-12T00:08:21;103534.66;;;21.86;38.81
46710;BME280;32442;51.514;-0.178;2023-02-12T00:10:48;103528.19;;;21.85;39.14
46710;BME280;32442;51.514;-0.178;2023-02-12T00:13:14;103532.38;;;21.83;39.48
46710;BME280;32442;51.514;-0.178;2023-02-12T00:15:41;103540.81;;;21.83;38.96
46710;BME280;32442;51.514;-0.178;2023-02-12T00:18:08;103538.00;;;21.83;39.03
46710;BME280;32442;51.514;-0.178;2023-02-12T00:20:36;103530.09;;;21.80;39.07
46710;BME280;32442;51.514;-0.178;2023-02-12T00:23:04;103541.59;;;21.78;39.46
46710;BME280;32442;51.514;-0.178;2023-02-12T00:25:31;103543.78;;;21.76;39.38
46710;BME280;32442;51.514;-0.178;2023-02-12T00:27:58;103535.63;;;21.74;39.77
46710;BME280;32442;51.514;-0.178;2023-02-12T00:30:25;103529.66;;;21.71;39.72
46710;BME280;32442;51.514;-0.178;2023-02-12T00:32:52;103533.56;;;21.70;39.59
46710;BME280;32442;51.514;-0.178;2023-02-12T00:35:19;103537.72;;;21.67;39.69
46710;BME280;32442;51.514;-0.178;2023-02-12T00:37:46;103537.72;;;21.67;39.75
46710;BME280;32442;51.514;-0.178;2023-02-12T00:40:13;103543.63;;;21.66;40.02
46710;BME280;32442;51.514;-0.178;2023-02-12T00:42:39;103530.03;;;21.63;39.98
46710;BME280;32442;51.514;-0.178;2023-02-12T00:45:07;103537.91;;;21.61;40.39
46710;BME280;32442;51.514;-0.178;2023-02-12T00:47:34;103533.59;;;21.58;40.42
46710;BME280;32442;51.514;-0.178;2023-02-12T00:50:00;103537.19;;;21.54;40.66
46710;BME280;32442;51.514;-0.178;2023-02-12T00:52:27;103533.78;;;21.52;40.47
46710;BME280;32442;51.514;-0.178;2023-02-12T00:54:54;103537.69;;;21.51;40.67
46710;BME280;32442;51.514;-0.178;2023-02-12T00:57:21;103534.25;;;21.49;40.72
46710;BME280;32442;51.514;-0.178;2023-02-12T00:59:48;103535.88;;;21.45;40.74
46710;BME280;32442;51.514;-0.178;2023-02-12T01:02:15;103527.19;;;21.46;40.92
46710;BME280;32442;51.514;-0.178;2023-02-12T01:04:43;103535.28;;;21.43;40.48
46710;BME280;32442;51.514;-0.178;2023-02-12T01:07:10;103536.63;;;21.40;41.05
46710;BME280;32442;51.514;-0.178;2023-02-12T01:09:37;103535.78;;;21.40;40.85
46710;BME280;32442;51.514;-0.178;2023-02-12T01:12:04;103533.59;;;21.42;40.85
46710;BME280;32442;51.514;-0.178;2023-02-12T01:14:31;103528.47;;;21.39;40.69
46710;BME280;32442;51.514;-0.178;2023-02-12T01:16:58;103535.44;;;21.36;40.86
46710;BME280;32442;51.514;-0.178;2023-02-12T01:19:25;103531.19;;;21.34;41.15
46710;BME280;32442;51.514;-0.178;2023-02-12T01:21:53;103539.00;;;21.32;40.97
46710;BME280;32442;51.514;-0.178;2023-02-12T01:24:20;103533.03;;;21.28;40.93
46710;BME280;32442;51.514;-0.178;2023-02-12T01:26:47;103532.16;;;21.27;41.28
46710;BME280;32442;51.514;-0.178;2023-02-12T01:29:14;103533.53;;;21.25;41.27
46710;BME280;32442;51.514;-0.178;2023-02-12T01:31:40;103538.53;;;21.23;41.08
46710;BME280;32442;51.514;-0.178;2023-02-12T01:34:08;103536.59;;;21.23;41.18
46710;BME280;32442;51.514;-0.178;2023-02-12T01:36:36;103530.63;;;21.20;41.38
46710;BME280;32442;51.514;-0.178;2023-02-12T01:39:04;103524.13;;;21.19;41.33
46710;BME280;32442;51.514;-0.178;2023-02-12T01:41:32;103519.03;;;21.16;41.66
46710;BME280;32442;51.514;-0.178;2023-02-12T01:46:29;103533.56;;;21.13;41.30
46710;BME280;32442;51.514;-0.178;2023-02-12T01:48:56;103539.44;;;21.12;41.30
46710;BME280;32442;51.514;-0.178;2023-02-12T01:51:23;103534.91;;;21.11;41.67
46710;BME280;32442;51.514;-0.178;2023-02-12T01:53:52;103537.09;;;21.09;41.25
46710;BME280;32442;51.514;-0.178;2023-02-12T01:56:20;103529.75;;;21.08;41.88
46710;BME280;32442;51.514;-0.178;2023-02-12T01:58:47;103531.97;;;21.06;41.61
46710;BME280;32442;51.514;-0.178;2023-02-12T02:01:17;103530.88;;;21.07;41.79
46710;BME280;32442;51.514;-0.178;2023-02-12T02:03:45;103525.50;;;21.05;41.75
46710;BME280;32442;51.514;-0.178;2023-02-12T02:06:15;103532.22;;;21.04;41.44
46710;BME280;32442;51.514;-0.178;2023-02-12T02:08:43;103518.91;;;21.00;41.78
46710;BME280;32442;51.514;-0.178;2023-02-12T02:11:10;103526.75;;;20.98;41.63
46710;BME280;32442;51.514;-0.178;2023-02-12T02:13:41;103525.03;;;20.97;41.51
46710;BME280;32442;51.514;-0.178;2023-02-12T02:18:42;103534.22;;;20.92;41.64
46710;BME280;32442;51.514;-0.178;2023-02-12T02:28:51;103542.53;;;20.87;41.66
46710;BME280;32442;51.514;-0.178;2023-02-12T02:31:25;103538.00;;;20.86;41.58
46710;BME280;32442;51.514;-0.178;2023-02-12T02:43:54;103538.41;;;20.78;41.55
46710;BME280;32442;51.514;-0.178;2023-02-12T02:48:56;103540.34;;;20.77;41.57
46710;BME280;32442;51.514;-0.178;2023-02-12T02:53:56;103530.81;;;20.78;41.82
46710;BME280;32442;51.514;-0.178;2023-02-12T02:56:26;103534.38;;;20.74;42.08
46710;BME280;32442;51.514;-0.178;2023-02-12T02:58:55;103525.59;;;20.70;41.85
46710;BME280;32442;51.514;-0.178;2023-02-12T03:01:28;103529.84;;;20.73;41.90
46710;BME280;32442;51.514;-0.178;2023-02-12T03:06:32;103520.84;;;20.71;42.08
46710;BME280;32442;51.514;-0.178;2023-02-12T03:09:03;103512.03;;;20.67;42.23
46710;BME280;32442;51.514;-0.178;2023-02-12T03:11:32;103508.97;;;20.69;41.97
46710;BME280;32442;51.514;-0.178;2023-02-12T03:16:30;103518.75;;;20.66;42.02
46710;BME280;32442;51.514;-0.178;2023-02-12T03:19:02;103515.34;;;20.64;42.12
46710;BME280;32442;51.514;-0.178;2023-02-12T03:21:34;103521.19;;;20.63;42.03
46710;BME280;32442;51.514;-0.178;2023-02-12T03:24:06;103518.88;;;20.60;42.27
46710;BME280;32442;51.514;-0.178;2023-02-12T03:26:41;103513.50;;;20.58;41.94
46710;BME280;32442;51.514;-0.178;2023-02-12T03:29:09;103510.22;;;20.61;42.18
46710;BME280;32442;51.514;-0.178;2023-02-12T03:39:08;103516.22;;;20.53;42.08
46710;BME280;32442;51.514;-0.178;2023-02-12T03:49:06;103513.88;;;20.50;42.44
46710;BME280;32442;51.514;-0.178;2023-02-12T03:54:06;103509.84;;;20.46;42.41
46710;BME280;32442;51.514;-0.178;2023-02-12T03:56:38;103505.34;;;20.45;42.40
46710;BME280;32442;51.514;-0.178;2023-02-12T03:59:07;103514.88;;;20.44;42.36
46710;BME280;32442;51.514;-0.178;2023-02-12T04:01:34;103517.06;;;20.42;42.01
46710;BME280;32442;51.514;-0.178;2023-02-12T04:04:03;103518.66;;;20.38;42.14
46710;BME280;32442;51.514;-0.178;2023-02-12T04:06:31;103517.81;;;20.37;42.22
46710;BME280;32442;51.514;-0.178;2023-02-12T04:09:00;103517.19;;;20.35;42.14
46710;BME280;32442;51.514;-0.178;2023-02-12T04:11:30;103520.00;;;20.35;42.37
46710;BME280;32442;51.514;-0.178;2023-02-12T04:19:03;103509.50;;;20.31;42.55
46710;BME280;32442;51.514;-0.178;2023-02-12T04:26:28;103508.88;;;20.29;42.23
46710;BME280;32442;51.514;-0.178;2023-02-12T04:31:32;103507.16;;;20.28;42.10
46710;BME280;32442;51.514;-0.178;2023-02-12T04:36:33;103512.66;;;20.23;42.23
46710;BME280;32442;51.514;-0.178;2023-02-12T04:39:02;103509.84;;;20.23;42.12
46710;BME280;32442;51.514;-0.178;2023-02-12T04:41:30;103508.13;;;20.22;42.55
46710;BME280;32442;51.514;-0.178;2023-02-12T04:43:57;103506.44;;;20.21;42.15
46710;BME280;32442;51.514;-0.178;2023-02-12T04:46:23;103513.16;;;20.20;42.13
46710;BME280;32442;51.514;-0.178;2023-02-12T04:48:52;103508.03;;;20.17;42.57
46710;BME280;32442;51.514;-0.178;2023-02-12T04:51:20;103508.03;;;20.17;42.15
46710;BME280;32442;51.514;-0.178;2023-02-12T04:53:46;103514.97;;;20.14;42.58
46710;BME280;32442;51.514;-0.178;2023-02-12T04:56:13;103511.06;;;20.15;42.29
46710;BME280;32442;51.514;-0.178;2023-02-12T04:58:40;103508.25;;;20.15;42.25
46710;BME280;32442;51.514;-0.178;2023-02-12T05:01:07;103511.56;;;20.12;42.38
46710;BME280;32442;51.514;-0.178;2023-02-12T05:03:35;103516.31;;;20.12;42.56
46710;BME280;32442;51.514;-0.178;2023-02-12T05:06:03;103511.78;;;20.11;42.27
46710;BME280;32442;51.514;-0.178;2023-02-12T05:08:30;103511.78;;;20.11;42.61
46710;BME280;32442;51.514;-0.178;2023-02-12T05:11:02;103512.53;;;20.06;42.74
46710;BME280;32442;51.514;-0.178;2023-02-12T05:13:28;103519.00;;;20.07;42.39
46710;BME280;32442;51.514;-0.178;2023-02-12T05:15:56;103512.28;;;20.08;42.60
46710;BME280;32442;51.514;-0.178;2023-02-12T05:18:23;103513.38;;;20.07;42.53
46710;BME280;32442;51.514;-0.178;2023-02-12T05:23:20;103516.66;;;20.04;42.72
46710;BME280;32442;51.514;-0.178;2023-02-12T05:25:47;103510.22;;;20.03;42.69
46710;BME280;32442;51.514;-0.178;2023-02-12T05:28:13;103497.00;;;20.04;42.32
46710;BME280;32442;51.514;-0.178;2023-02-12T05:30:41;103507.63;;;20.02;42.43
46710;BME280;32442;51.514;-0.178;2023-02-12T05:33:07;103507.63;;;20.02;42.34
46710;BME280;32442;51.514;-0.178;2023-02-12T05:35:34;103502.25;;;20.00;42.73
46710;BME280;32442;51.514;-0.178;2023-02-12T05:38:01;103499.72;;;19.98;42.66
46710;BME280;32442;51.514;-0.178;2023-02-12T05:40:28;103496.50;;;19.95;42.67
46710;BME280;32442;51.514;-0.178;2023-02-12T05:42:54;103497.13;;;19.97;42.40
46710;BME280;32442;51.514;-0.178;2023-02-12T05:45:21;103500.44;;;19.94;42.46
46710;BME280;32442;51.514;-0.178;2023-02-12T05:47:53;103501.28;;;19.94;42.83
46710;BME280;32442;51.514;-0.178;2023-02-12T05:50:20;103498.47;;;19.94;42.60
46710;BME280;32442;51.514;-0.178;2023-02-12T05:52:47;103493.34;;;19.91;42.76
46710;BME280;32442;51.514;-0.178;2023-02-12T05:55:14;103495.78;;;19.88;42.86
46710;BME280;32442;51.514;-0.178;2023-02-12T05:57:41;103500.91;;;19.91;42.49
46710;BME280;32442;51.514;-0.178;2023-02-12T06:00:08;103498.38;;;19.89;42.40
46710;BME280;32442;51.514;-0.178;2023-02-12T06:02:35;103499.19;;;19.90;42.29
46710;BME280;32442;51.514;-0.178;2023-02-12T06:05:03;103491.91;;;19.89;42.62
46710;BME280;32442;51.514;-0.178;2023-02-12T06:07:30;103501.91;;;19.85;42.59
46710;BME280;32442;51.514;-0.178;2023-02-12T06:09:56;103502.97;;;19.84;42.59
46710;BME280;32442;51.514;-0.178;2023-02-12T06:12:24;103502.13;;;19.83;42.55
46710;BME280;32442;51.514;-0.178;2023-02-12T06:14:51;103504.31;;;19.81;42.92
46710;BME280;32442;51.514;-0.178;2023-02-12T06:17:18;103501.75;;;19.80;42.95
46710;BME280;32442;51.514;-0.178;2023-02-12T06:19:45;103506.50;;;19.79;42.87
46710;BME280;32442;51.514;-0.178;2023-02-12T06:22:12;103505.44;;;19.80;42.73
46710;BME280;32442;51.514;-0.178;2023-02-12T06:24:39;103507.84;;;19.77;42.65
46710;BME280;32442;51.514;-0.178;2023-02-12T06:27:05;103496.59;;;19.77;42.87
46710;BME280;32442;51.514;-0.178;2023-02-12T06:29:32;103497.72;;;19.76;42.94
46710;BME280;32442;51.514;-0.178;2023-02-12T06:31:59;103490.16;;;19.76;42.86
46710;BME280;32442;51.514;-0.178;2023-02-12T06:34:26;103498.81;;;19.75;42.66
46710;BME280;32442;51.514;-0.178;2023-02-12T06:36:53;103499.69;;;19.75;42.59
46710;BME280;32442;51.514;-0.178;2023-02-12T06:39:20;103494.31;;;19.74;43.00
46710;BME280;32442;51.514;-0.178;2023-02-12T06:41:46;103498.19;;;19.73;42.91
46710;BME280;32442;51.514;-0.178;2023-02-12T06:44:17;103503.81;;;19.73;42.85
46710;BME280;32442;51.514;-0.178;2023-02-12T06:46:46;103504.44;;;19.75;42.70
46710;BME280;32442;51.514;-0.178;2023-02-12T06:49:13;103501.50;;;19.70;42.77
46710;BME280;32442;51.514;-0.178;2023-02-12T06:51:42;103496.75;;;19.70;42.85
46710;BME280;32442;51.514;-0.178;2023-02-12T06:54:11;103488.31;;;19.70;43.12
46710;BME280;32442;51.514;-0.178;2023-02-12T06:56:38;103497.81;;;19.69;42.84
46710;BME280;32442;51.514;-0.178;2023-02-12T06:59:05;103500.63;;;19.69;43.01
46710;BME280;32442;51.514;-0.178;2023-02-12T07:01:31;103500.63;;;19.69;43.03
46710;BME280;32442;51.514;-0.178;2023-02-12T07:03:59;103498.91;;;19.68;42.78
46710;BME280;32442;51.514;-0.178;2023-02-12T07:06:29;103498.56;;;19.65;42.86
46710;BME280;32442;51.514;-0.178;2023-02-12T07:08:56;103501.13;;;19.66;42.88
46710;BME280;32442;51.514;-0.178;2023-02-12T07:11:25;103504.16;;;19.65;43.13
46710;BME280;32442;51.514;-0.178;2023-02-12T07:13:53;103501.13;;;19.66;42.92
46710;BME280;32442;51.514;-0.178;2023-02-12T07:16:23;103508.06;;;19.64;42.86
46710;BME280;32442;51.514;-0.178;2023-02-12T07:18:50;103512.19;;;19.61;43.35
46710;BME280;32442;51.514;-0.178;2023-02-12T07:21:17;103514.88;;;19.68;42.99
46710;BME280;32442;51.514;-0.178;2023-02-12T07:23:45;103518.81;;;19.67;43.49
46710;BME280;32442;51.514;-0.178;2023-02-12T07:26:16;103518.19;;;19.76;43.50
46710;BME280;32442;51.514;-0.178;2023-02-12T07:28:43;103519.19;;;19.82;43.79
46710;BME280;32442;51.514;-0.178;2023-02-12T07:31:11;103522.34;;;19.85;44.10
46710;BME280;32442;51.514;-0.178;2023-02-12T07:33:39;103518.84;;;19.90;43.85
46710;BME280;32442;51.514;-0.178;2023-02-12T07:36:07;103520.91;;;19.94;44.06
46710;BME280;32442;51.514;-0.178;2023-02-12T07:38:35;103521.91;;;20.00;43.73
46710;BME280;32442;51.514;-0.178;2023-02-12T07:43:38;103530.81;;;20.09;44.24
46710;BME280;32442;51.514;-0.178;2023-02-12T07:46:06;103524.47;;;20.13;44.09
46710;BME280;32442;51.514;-0.178;2023-02-12T07:48:33;103519.84;;;20.19;43.81
46710;BME280;32442;51.514;-0.178;2023-02-12T07:53:30;103526.34;;;20.31;43.72
46710;BME280;32442;51.514;-0.178;2023-02-12T07:58:27;103533.06;;;20.41;43.81
46710;BME280;32442;51.514;-0.178;2023-02-12T08:00:53;103530.16;;;20.48;43.64
46710;BME280;32442;51.514;-0.178;2023-02-12T08:03:20;103526.09;;;20.56;43.22
46710;BME280;32442;51.514;-0.178;2023-02-12T08:05:50;103527.06;;;20.61;43.33
46710;BME280;32442;51.514;-0.178;2023-02-12T08:08:20;103530.84;;;20.67;42.93
46710;BME280;32442;51.514;-0.178;2023-02-12T08:10:47;103531.81;;;20.72;42.68
46710;BME280;32442;51.514;-0.178;2023-02-12T08:13:14;103528.53;;;20.75;42.76
46710;BME280;32442;51.514;-0.178;2023-02-12T08:15:41;103536.81;;;20.82;42.83
46710;BME280;32442;51.514;-0.178;2023-02-12T08:18:08;103523.09;;;20.85;42.30
46710;BME280;32442;51.514;-0.178;2023-02-12T08:20:34;103527.97;;;20.90;42.39
46710;BME280;32442;51.514;-0.178;2023-02-12T08:23:01;103529.19;;;20.94;42.23
46710;BME280;32442;51.514;-0.178;2023-02-12T08:25:28;103532.38;;;20.98;42.10
46710;BME280;32442;51.514;-0.178;2023-02-12T08:27:55;103531.88;;;21.01;41.86
46710;BME280;32442;51.514;-0.178;2023-02-12T08:30:21;103528.53;;;21.04;42.13
46710;BME280;32442;51.514;-0.178;2023-02-12T08:32:51;103527.22;;;21.06;42.00
46710;BME280;32442;51.514;-0.178;2023-02-12T08:35:17;103526.94;;;21.08;41.83
46710;BME280;32442;51.514;-0.178;2023-02-12T08:37:44;103537.72;;;21.11;41.76
46710;BME280;32442;51.514;-0.178;2023-02-12T08:40:11;103545.88;;;21.12;41.93
46710;BME280;32442;51.514;-0.178;2023-02-12T08:42:39;103543.72;;;21.14;41.52
46710;BME280;32442;51.514;-0.178;2023-02-12T08:45:06;103542.34;;;21.17;41.49
46710;BME280;32442;51.514;-0.178;2023-02-12T08:47:33;103538.44;;;21.18;41.45
46710;BME280;32442;51.514;-0.178;2023-02-12T08:50:00;103530.63;;;21.20;41.90
46710;BME280;32442;51.514;-0.178;2023-02-12T08:52:29;103532.56;;;21.19;41.40
46710;BME280;32442;51.514;-0.178;2023-02-12T08:54:56;103535.97;;;21.21;41.70
46710;BME280;32442;51.514;-0.178;2023-02-12T08:57:23;103547.84;;;21.23;41.58
46710;BME280;32442;51.514;-0.178;2023-02-12T08:59:49;103548.69;;;21.24;41.44
46710;BME280;32442;51.514;-0.178;2023-02-12T09:02:16;103550.41;;;21.25;41.72
46710;BME280;32442;51.514;-0.178;2023-02-12T09:04:44;103545.88;;;21.24;41.40
46710;BME280;32442;51.514;-0.178;2023-02-12T09:07:10;103547.59;;;21.25;41.76
46710;BME280;32442;51.514;-0.178;2023-02-12T09:09:38;103544.50;;;21.26;41.64
46710;BME280;32442;51.514;-0.178;2023-02-12T09:12:04;103552.09;;;21.26;41.60
46710;BME280;32442;51.514;-0.178;2023-02-12T09:14:31;103550.75;;;21.28;41.33
46710;BME280;32442;51.514;-0.178;2023-02-12T09:16:58;103545.88;;;21.24;40.94
46710;BME280;32442;51.514;-0.178;2023-02-12T09:19:24;103547.84;;;21.23;41.58
46710;BME280;32442;51.514;-0.178;2023-02-12T09:21:52;103550.41;;;21.25;41.32
46710;BME280;32442;51.514;-0.178;2023-02-12T09:24:21;103550.66;;;21.23;40.99
46710;BME280;32442;51.514;-0.178;2023-02-12T09:26:48;103557.13;;;21.24;41.46
46710;BME280;32442;51.514;-0.178;2023-02-12T09:29:18;103553.22;;;21.25;41.37
46710;BME280;32442;51.514;-0.178;2023-02-12T09:31:44;103552.59;;;21.23;41.25
46710;BME280;32442;51.514;-0.178;2023-02-12T09:34:12;103557.66;;;21.21;41.19
46710;BME280;32442;51.514;-0.178;2023-02-12T09:36:38;103555.94;;;21.20;41.53
46710;BME280;32442;51.514;-0.178;2023-02-12T09:39:05;103561.56;;;21.20;41.67
46710;BME280;32442;51.514;-0.178;2023-02-12T09:51:29;103562.44;;;20.27;39.26
46710;BME280;32442;51.514;-0.178;2023-02-12T09:54:00;103558.66;;;20.22;38.59
46710;BME280;32442;51.514;-0.178;2023-02-12T09:56:28;103554.59;;;19.94;39.10
46710;BME280;32442;51.514;-0.178;2023-02-12T09:58:59;103549.97;;;19.88;39.38
46710;BME280;32442;51.514;-0.178;2023-02-12T10:04:27;103561.34;;;20.28;39.74
46710;BME280;32442;51.514;-0.178;2023-02-12T10:26:47;103563.72;;;20.66;40.14
46710;BME280;32442;51.514;-0.178;2023-02-12T10:29:20;103556.50;;;20.70;39.81
46710;BME280;32442;51.514;-0.178;2023-02-12T10:31:50;103558.81;;;20.73;40.10
46710;BME280;32442;51.514;-0.178;2023-02-12T10:34:20;103560.25;;;20.76;39.67
46710;BME280;32442;51.514;-0.178;2023-02-12T10:36:48;103559.78;;;20.79;39.54
46710;BME280;32442;51.514;-0.178;2023-02-12T10:41:47;103551.47;;;20.84;39.48
46710;BME280;32442;51.514;-0.178;2023-02-12T10:44:15;103564.41;;;20.85;39.17
46710;BME280;32442;51.514;-0.178;2023-02-12T10:46:42;103562.81;;;20.89;39.36
46710;BME280;32442;51.514;-0.178;2023-02-12T10:49:10;103555.84;;;20.92;39.14
46710;BME280;32442;51.514;-0.178;2023-02-12T10:56:38;103558.75;;;20.97;39.03
46710;BME280;32442;51.514;-0.178;2023-02-12T10:59:09;103554.88;;;20.98;38.88
46710;BME280;32442;51.514;-0.178;2023-02-12T11:01:46;103560.22;;;20.99;38.93
46710;BME280;32442;51.514;-0.178;2023-02-12T11:04:19;103554.88;;;20.98;38.76
46710;BME280;32442;51.514;-0.178;2023-02-12T11:09:26;103558.53;;;20.98;38.77
46710;BME280;32442;51.514;-0.178;2023-02-12T11:11:53;103558.25;;;21.00;39.05
46710;BME280;32442;51.514;-0.178;2023-02-12T11:14:20;103550.94;;;20.99;38.92
46710;BME280;32442;51.514;-0.178;2023-02-12T11:19:21;103548.13;;;20.99;38.62
46710;BME280;32442;51.514;-0.178;2023-02-12T11:22:03;103552.63;;;21.00;38.54
46710;BME280;32442;51.514;-0.178;2023-02-12T11:24:32;103542.50;;;20.99;38.72
46710;BME280;32442;51.514;-0.178;2023-02-12T11:29:35;103540.53;;;20.99;38.50
46710;BME280;32442;51.514;-0.178;2023-02-12T11:32:03;103540.81;;;20.98;38.85
46710;BME280;32442;51.514;-0.178;2023-02-12T11:34:31;103537.38;;;20.96;38.81
46710;BME280;32442;51.514;-0.178;2023-02-12T11:36:59;103544.47;;;20.98;38.24
46710;BME280;32442;51.514;-0.178;2023-02-12T11:39:29;103540.19;;;20.96;38.71
46710;BME280;32442;51.514;-0.178;2023-02-12T11:44:26;103536.41;;;20.90;38.63
46710;BME280;32442;51.514;-0.178;2023-02-12T11:46:59;103535.94;;;20.93;38.56
46710;BME280;32442;51.514;-0.178;2023-02-12T11:49:31;103530.56;;;20.92;38.14
46710;BME280;32442;51.514;-0.178;2023-02-12T11:52:00;103535.56;;;20.90;38.25
46710;BME280;32442;51.514;-0.178;2023-02-12T11:54:28;103541.44;;;20.88;38.19
46710;BME280;32442;51.514;-0.178;2023-02-12T11:56:59;103537.16;;;20.85;38.19
46710;BME280;32442;51.514;-0.178;2023-02-12T11:59:30;103529.84;;;20.84;38.20
46710;BME280;32442;51.514;-0.178;2023-02-12T12:01:58;103527.03;;;20.84;38.63
46710;BME280;32442;51.514;-0.178;2023-02-12T12:04:31;103516.28;;;20.81;38.50
46710;BME280;32442;51.514;-0.178;2023-02-12T12:09:34;103519.72;;;20.72;38.56
46710;BME280;32442;51.514;-0.178;2023-02-12T12:14:36;103526.06;;;20.67;38.89
46710;BME280;32442;51.514;-0.178;2023-02-12T12:20:03;103523.75;;;20.64;39.18
46710;BME280;32442;51.514;-0.178;2023-02-12T12:30:14;103512.78;;;20.51;39.04
46710;BME280;32442;51.514;-0.178;2023-02-12T12:32:44;103517.31;;;20.52;39.33
46710;BME280;32442;51.514;-0.178;2023-02-12T12:35:16;103510.09;;;20.45;39.25
46710;BME280;32442;51.514;-0.178;2023-02-12T12:42:45;103499.13;;;20.43;39.66
46710;BME280;32442;51.514;-0.178;2023-02-12T12:52:53;103486.91;;;20.37;39.18
46710;BME280;32442;51.514;-0.178;2023-02-12T13:07:55;103479.72;;;20.30;40.04
46710;BME280;32442;51.514;-0.178;2023-02-12T13:15:32;103482.13;;;20.26;39.69
46710;BME280;32442;51.514;-0.178;2023-02-12T13:25:32;103462.13;;;20.46;42.78
46710;BME280;32442;51.514;-0.178;2023-02-12T13:28:01;103454.59;;;20.35;43.18
46710;BME280;32442;51.514;-0.178;2023-02-12T13:30:32;103459.53;;;20.45;43.33
46710;BME280;32442;51.514;-0.178;2023-02-12T13:35:44;103451.88;;;20.40;43.08
46710;BME280;32442;51.514;-0.178;2023-02-12T13:38:16;103443.19;;;20.41;42.56
46710;BME280;32442;51.514;-0.178;2023-02-12T13:40:44;103450.78;;;20.41;42.78
46710;BME280;32442;51.514;-0.178;2023-02-12T13:43:21;103454.66;;;20.40;42.27
46710;BME280;32442;51.514;-0.178;2023-02-12T13:50:55;103456.38;;;20.29;42.08
46710;BME280;32442;51.514;-0.178;2023-02-12T14:01:01;103443.81;;;20.20;41.78
46710;BME280;32442;51.514;-0.178;2023-02-12T14:03:35;103434.19;;;20.16;41.95
46710;BME280;32442;51.514;-0.178;2023-02-12T14:06:08;103435.03;;;20.17;42.17
46710;BME280;32442;51.514;-0.178;2023-02-12T14:08:38;103438.09;;;20.15;42.11
46710;BME280;32442;51.514;-0.178;2023-02-12T14:11:10;103430.75;;;20.14;41.59
46710;BME280;32442;51.514;-0.178;2023-02-12T14:18:37;103419.53;;;20.14;41.74
46710;BME280;32442;51.514;-0.178;2023-02-12T14:23:36;103425.38;;;20.24;41.32
46710;BME280;32442;51.514;-0.178;2023-02-12T14:26:04;103415.38;;;20.28;41.29
46710;BME280;32442;51.514;-0.178;2023-02-12T14:33:32;103419.53;;;20.37;41.34
46710;BME280;32442;51.514;-0.178;2023-02-12T14:48:59;103405.56;;;20.54;40.87
46710;BME280;32442;51.514;-0.178;2023-02-12T14:54:04;103418.84;;;20.59;40.42
46710;BME280;32442;51.514;-0.178;2023-02-12T14:56:39;103416.03;;;20.59;40.77
46710;BME280;32442;51.514;-0.178;2023-02-12T14:59:09;103411.63;;;20.63;40.52
46710;BME280;32442;51.514;-0.178;2023-02-12T15:01:38;103406.88;;;20.63;40.67
46710;BME280;32442;51.514;-0.178;2023-02-12T15:06:36;103404.69;;;20.65;40.45
46710;BME280;32442;51.514;-0.178;2023-02-12T15:09:07;103393.44;;;20.65;40.06
46710;BME280;32442;51.514;-0.178;2023-02-12T15:14:06;103386.47;;;20.68;40.07
46710;BME280;32442;51.514;-0.178;2023-02-12T15:21:36;103382.31;;;20.70;40.25
46710;BME280;32442;51.514;-0.178;2023-02-12T15:26:38;103383.41;;;20.69;40.08
46710;BME280;32442;51.514;-0.178;2023-02-12T15:31:37;103372.41;;;20.68;40.16
46710;BME280;32442;51.514;-0.178;2023-02-12T15:34:04;103366.78;;;20.68;39.74
46710;BME280;32442;51.514;-0.178;2023-02-12T15:36:32;103373.53;;;20.67;39.64
46710;BME280;32442;51.514;-0.178;2023-02-12T15:39:00;103370.97;;;20.65;39.51
46710;BME280;32442;51.514;-0.178;2023-02-12T15:43:59;103367.53;;;20.63;39.68
46710;BME280;32442;51.514;-0.178;2023-02-12T15:46:26;103363.63;;;20.64;39.65
46710;BME280;32442;51.514;-0.178;2023-02-12T15:48:53;103368.69;;;20.62;39.90
46710;BME280;32442;51.514;-0.178;2023-02-12T15:53:54;103365.88;;;20.62;39.95
46710;BME280;32442;51.514;-0.178;2023-02-12T15:56:22;103363.88;;;20.63;40.04
46710;BME280;32442;51.514;-0.178;2023-02-12T15:58:52;103364.38;;;20.60;40.04
46710;BME280;32442;51.514;-0.178;2023-02-12T16:01:20;103357.44;;;20.62;39.76
46710;BME280;32442;51.514;-0.178;2023-02-12T16:03:50;103364.16;;;20.61;40.11
46710;BME280;32442;51.514;-0.178;2023-02-12T16:06:21;103356.81;;;20.60;40.04
46710;BME280;32442;51.514;-0.178;2023-02-12T16:08:49;103359.28;;;20.57;39.94
46710;BME280;32442;51.514;-0.178;2023-02-12T16:11:21;103351.94;;;20.56;40.02
46710;BME280;32442;51.514;-0.178;2023-02-12T16:16:21;103351.94;;;20.56;40.09
46710;BME280;32442;51.514;-0.178;2023-02-12T16:21:19;103352.19;;;20.54;39.89
46710;BME280;32442;51.514;-0.178;2023-02-12T16:23:47;103345.38;;;20.50;40.40
46710;BME280;32442;51.514;-0.178;2023-02-12T16:26:16;103356.59;;;20.50;40.30
46710;BME280;32442;51.514;-0.178;2023-02-12T16:28:45;103351.25;;;20.49;40.09
46710;BME280;32442;51.514;-0.178;2023-02-12T16:31:14;103353.69;;;20.45;40.45
46710;BME280;32442;51.514;-0.178;2023-02-12T16:33:44;103337.13;;;20.44;40.23
46710;BME280;32442;51.514;-0.178;2023-02-12T16:38:44;103341.25;;;20.41;40.20
46710;BME280;32442;51.514;-0.178;2023-02-12T16:43:42;103334.44;;;20.37;40.12
46710;BME280;32442;51.514;-0.178;2023-02-12T16:46:09;103347.28;;;20.33;40.32
46710;BME280;32442;51.514;-0.178;2023-02-12T16:48:39;103349.47;;;20.31;40.44
46710;BME280;32442;51.514;-0.178;2023-02-12T16:53:40;103350.78;;;20.28;40.17
46710;BME280;32442;51.514;-0.178;2023-02-12T16:56:11;103354.97;;;20.26;40.64
46710;BME280;32442;51.514;-0.178;2023-02-12T16:58:41;103358.50;;;20.21;40.79
46710;BME280;32442;51.514;-0.178;2023-02-12T17:01:08;103355.94;;;20.20;40.71